createdAt,value
2019-04-04T00:01:11.493Z,50.32
2019-04-04T00:03:42.901Z,50.02
2019-04-04T00:06:14.206Z,49.62
2019-04-04T00:08:45.543Z,49.50
2019-04-04T00:11:16.706Z,49.67
2019-04-04T00:13:48.701Z,48.63
2019-04-04T00:16:20.735Z,48.70
2019-04-04T00:18:52.732Z,48.59
2019-04-04T00:21:26.170Z,48.50
2019-04-04T00:23:58.092Z,48.43
2019-04-04T00:26:32.042Z,48.57
2019-04-04T00:29:06.487Z,48.46
2019-04-04T00:31:39.056Z,48.16
2019-04-04T00:34:10.416Z,48.08
2019-04-04T00:36:41.989Z,48.05
2019-04-04T00:39:14.045Z,47.91
2019-04-04T00:41:54.792Z,47.95
2019-04-04T00:44:30.698Z,47.48
2019-04-04T00:47:03.785Z,47.35
2019-04-04T00:49:35.554Z,47.43
2019-04-04T00:52:13.128Z,47.37
2019-04-04T00:54:47.309Z,47.41
2019-04-04T00:57:31.017Z,47.27
2019-04-04T01:00:02.604Z,47.17
2019-04-04T01:02:49.665Z,47.29
2019-04-04T01:05:24.151Z,47.35
2019-04-04T01:07:55.583Z,47.25
2019-04-04T01:10:27.014Z,47.32
2019-04-04T01:12:58.631Z,47.50
2019-04-04T01:15:36.144Z,47.45
2019-04-04T01:18:07.620Z,47.37
2019-04-04T01:20:42.062Z,47.48
2019-04-04T01:23:13.685Z,47.62
2019-04-04T01:25:45.186Z,47.85
2019-04-04T01:28:17.618Z,47.93
2019-04-04T01:30:49.014Z,48.33
2019-04-04T01:33:21.517Z,48.56
2019-04-04T01:35:57.654Z,48.95
2019-04-04T01:38:38.362Z,49.05
2019-04-04T01:41:15.915Z,48.94
2019-04-04T01:43:50.077Z,49.11
2019-04-04T01:46:21.761Z,49.24
2019-04-04T01:48:53.276Z,49.32
2019-04-04T01:51:25.425Z,49.67
2019-04-04T01:53:59.013Z,49.99
2019-04-04T01:56:41.370Z,50.28
2019-04-04T01:59:32.636Z,50.42
2019-04-04T02:02:07.088Z,50.80
2019-04-04T02:04:40.149Z,51.16
2019-04-04T02:07:11.712Z,51.28
2019-04-04T02:09:44.193Z,51.54
2019-04-04T02:12:15.542Z,51.85
2019-04-04T02:14:46.770Z,52.20
2019-04-04T02:17:18.119Z,52.43
2019-04-04T02:19:49.427Z,52.75
2019-04-04T02:22:22.015Z,53.19
2019-04-04T02:24:53.977Z,53.50
2019-04-04T02:27:25.406Z,53.75
2019-04-04T02:29:56.857Z,54.02
2019-04-04T02:32:29.416Z,54.26
2019-04-04T02:35:01.694Z,54.37
2019-04-04T02:37:33.012Z,54.66
2019-04-04T02:40:08.898Z,54.80
2019-04-04T02:42:39.460Z,54.85
2019-04-04T02:45:10.752Z,54.59
2019-04-04T02:47:41.983Z,54.07
2019-04-04T02:50:13.452Z,54.09
2019-04-04T02:52:46.201Z,54.25
2019-04-04T02:55:17.685Z,54.29
2019-04-04T02:57:48.959Z,54.40
2019-04-04T03:00:20.257Z,54.23
2019-04-04T03:02:51.628Z,53.76
2019-04-04T03:05:22.686Z,53.96
2019-04-04T03:07:53.811Z,54.02
2019-04-04T03:10:25.169Z,53.53
2019-04-04T03:12:58.640Z,53.45
2019-04-04T03:15:29.709Z,53.57
2019-04-04T03:18:04.122Z,53.75
2019-04-04T03:20:33.880Z,53.74
2019-04-04T03:23:05.870Z,53.21
2019-04-04T03:25:37.746Z,53.15
2019-04-04T03:28:08.882Z,53.15
2019-04-04T03:30:41.363Z,52.87
2019-04-04T03:33:13.106Z,53.26
2019-04-04T03:35:45.297Z,52.99
2019-04-04T03:38:16.572Z,52.45
2019-04-04T03:40:48.255Z,52.66
2019-04-04T03:43:19.471Z,52.50
2019-04-04T03:45:50.717Z,52.20
2019-04-04T03:48:23.059Z,52.14
2019-04-04T03:50:57.154Z,51.88
2019-04-04T03:53:28.332Z,51.46
2019-04-04T03:56:01.228Z,51.33
2019-04-04T03:58:34.608Z,51.97
2019-04-04T04:01:06.016Z,51.57
2019-04-04T04:03:38.476Z,51.22
2019-04-04T04:06:10.379Z,51.33
2019-04-04T04:08:41.869Z,51.11
2019-04-04T04:11:13.421Z,50.77
2019-04-04T04:13:48.932Z,50.51
2019-04-04T04:16:17.625Z,50.19
2019-04-04T04:18:54.030Z,49.57
2019-04-04T04:21:23.230Z,49.41
2019-04-04T04:23:59.798Z,48.99
2019-04-04T04:26:34.131Z,48.79
2019-04-04T04:29:05.276Z,48.31
2019-04-04T04:31:37.030Z,48.91
2019-04-04T04:34:08.456Z,47.56
2019-04-04T04:36:41.132Z,46.85
2019-04-04T04:39:12.544Z,46.50
2019-04-04T04:41:45.099Z,45.67
2019-04-04T04:44:17.290Z,45.35
2019-04-04T04:46:51.071Z,46.46
2019-04-04T04:49:23.560Z,45.36
2019-04-04T04:51:55.225Z,45.77
2019-04-04T04:54:28.026Z,45.55
2019-04-04T04:57:04.796Z,45.65
2019-04-04T04:59:37.846Z,45.08
2019-04-04T05:02:09.504Z,45.39
2019-04-04T05:04:40.962Z,44.10
2019-04-04T05:07:12.130Z,43.71
2019-04-04T05:09:45.025Z,43.44
2019-04-04T05:12:17.397Z,42.72
2019-04-04T05:14:48.750Z,42.62
2019-04-04T05:17:19.999Z,42.64
2019-04-04T05:19:51.285Z,42.73
2019-04-04T05:22:22.545Z,42.90
2019-04-04T05:25:08.001Z,43.19
2019-04-04T05:27:27.187Z,42.63
2019-04-04T05:29:58.541Z,42.60
2019-04-04T05:32:29.948Z,42.20
2019-04-04T05:35:02.556Z,42.04
2019-04-04T05:37:37.968Z,42.33
2019-04-04T05:40:09.935Z,42.72
2019-04-04T05:42:41.745Z,42.66
2019-04-04T05:45:14.460Z,42.61
2019-04-04T05:47:46.271Z,42.38
2019-04-04T05:50:17.464Z,42.35
2019-04-04T05:52:53.487Z,41.93
2019-04-04T05:55:24.959Z,41.41
2019-04-04T05:57:56.059Z,41.34
2019-04-04T06:00:28.236Z,41.59
2019-04-04T06:03:00.481Z,41.80
2019-04-04T06:05:32.074Z,41.92
2019-04-04T06:08:08.187Z,41.85
2019-04-04T06:10:39.206Z,41.08
2019-04-04T06:13:10.350Z,40.65
2019-04-04T06:15:42.081Z,40.31
2019-04-04T06:18:13.278Z,40.19
2019-04-04T06:20:44.454Z,40.55
2019-04-04T06:23:16.040Z,41.37
2019-04-04T06:25:47.618Z,40.90
2019-04-04T06:28:19.276Z,41.03
2019-04-04T06:30:53.308Z,41.23
2019-04-04T06:33:27.011Z,40.84
2019-04-04T06:36:00.210Z,41.10
2019-04-04T06:38:33.508Z,41.17
2019-04-04T06:41:05.954Z,41.17
2019-04-04T06:43:37.745Z,40.05
2019-04-04T06:46:10.701Z,39.78
2019-04-04T06:48:42.338Z,39.38
2019-04-04T06:51:14.861Z,39.10
2019-04-04T06:53:47.082Z,39.21
2019-04-04T06:56:19.200Z,39.26
2019-04-04T06:58:50.830Z,39.18
2019-04-04T07:01:25.318Z,38.29
2019-04-04T07:03:59.525Z,37.86
2019-04-04T07:06:33.236Z,36.38
2019-04-04T07:09:07.337Z,36.48
2019-04-04T07:11:38.671Z,36.86
2019-04-04T07:14:10.491Z,36.84
2019-04-04T07:16:41.792Z,36.75
2019-04-04T07:19:15.035Z,36.60
2019-04-04T07:21:46.457Z,36.55
2019-04-04T07:24:17.687Z,35.72
2019-04-04T07:26:49.807Z,35.83
2019-04-04T07:29:23.012Z,35.86
2019-04-04T07:31:57.075Z,35.89
2019-04-04T07:34:28.523Z,35.65
2019-04-04T07:37:00.149Z,35.42
2019-04-04T07:39:32.823Z,34.98
2019-04-04T07:42:04.368Z,34.37
2019-04-04T07:44:35.628Z,35.20
2019-04-04T07:47:06.846Z,33.84
2019-04-04T07:49:40.187Z,33.42
2019-04-04T07:52:13.703Z,33.05
2019-04-04T07:54:47.867Z,33.41
2019-04-04T07:57:21.077Z,33.74
2019-04-04T07:59:52.455Z,31.68
2019-04-04T08:02:23.995Z,31.80
2019-04-04T08:04:57.443Z,30.84
2019-04-04T08:07:37.079Z,31.13
2019-04-04T08:10:19.982Z,31.14
2019-04-04T08:12:43.161Z,29.60
2019-04-04T08:15:21.061Z,29.60
2019-04-04T08:17:54.549Z,29.91
2019-04-04T08:20:45.977Z,29.92
2019-04-04T08:23:20.123Z,29.96
2019-04-04T08:25:52.971Z,29.68
2019-04-04T08:28:28.833Z,28.67
2019-04-04T08:31:02.143Z,29.02
2019-04-04T08:33:34.336Z,28.83
2019-04-04T08:36:06.570Z,29.90
2019-04-04T08:38:39.108Z,30.57
2019-04-04T08:41:12.476Z,29.66
2019-04-04T08:43:48.076Z,29.68
2019-04-04T08:46:20.234Z,28.43
2019-04-04T08:48:52.431Z,28.37
2019-04-04T08:51:23.611Z,28.23
2019-04-04T08:53:55.838Z,27.62
2019-04-04T08:56:27.322Z,27.53
2019-04-04T08:58:58.650Z,27.68
2019-04-04T09:01:30.994Z,27.94
2019-04-04T09:04:02.240Z,27.88
2019-04-04T09:06:34.549Z,28.85
2019-04-04T09:09:06.486Z,27.37
2019-04-04T09:11:39.884Z,28.54
2019-04-04T09:14:12.524Z,27.92
2019-04-04T09:16:45.604Z,28.10
2019-04-04T09:19:19.082Z,27.60
2019-04-04T09:21:50.600Z,27.40
2019-04-04T09:24:23.333Z,27.28
2019-04-04T09:26:54.796Z,27.14
2019-04-04T09:29:26.167Z,27.33
2019-04-04T09:31:57.628Z,27.70
2019-04-04T09:34:29.248Z,28.31
2019-04-04T09:37:01.723Z,27.02
2019-04-04T09:39:32.865Z,27.55
2019-04-04T09:42:07.274Z,26.85
2019-04-04T09:44:40.122Z,26.79
2019-04-04T09:47:12.853Z,27.57
2019-04-04T09:49:44.164Z,28.28
2019-04-04T09:52:15.566Z,28.09
2019-04-04T09:54:48.780Z,27.77
2019-04-04T09:57:20.674Z,27.43
2019-04-04T09:59:53.685Z,26.46
2019-04-04T10:02:27.428Z,26.40
2019-04-04T10:04:58.633Z,26.12
2019-04-04T10:07:29.801Z,26.25
2019-04-04T10:10:01.090Z,26.51
2019-04-04T10:12:32.899Z,26.43
2019-04-04T10:15:06.760Z,26.20
2019-04-04T10:17:38.015Z,26.68
2019-04-04T10:20:09.216Z,26.61
2019-04-04T10:22:40.500Z,26.51
2019-04-04T10:25:11.688Z,26.35
2019-04-04T10:27:42.962Z,26.26
2019-04-04T10:30:14.171Z,25.57
2019-04-04T10:32:45.283Z,25.62
2019-04-04T10:35:16.527Z,23.52
2019-04-04T10:37:48.007Z,22.61
2019-04-04T10:40:20.350Z,22.19
2019-04-04T10:42:55.635Z,21.96
2019-04-04T10:45:26.808Z,22.46
2019-04-04T10:47:58.543Z,22.32
2019-04-04T10:50:30.304Z,21.62
2019-04-04T10:53:01.782Z,21.52
2019-04-04T10:55:36.156Z,20.08
2019-04-04T10:58:07.203Z,20.88
2019-04-04T11:00:40.316Z,21.10
2019-04-04T11:03:11.608Z,20.61
2019-04-04T11:05:42.687Z,20.06
2019-04-04T11:08:14.950Z,19.89
2019-04-04T11:10:47.153Z,20.18
2019-04-04T11:13:18.361Z,19.37
2019-04-04T11:15:49.881Z,19.63
2019-04-04T11:18:24.812Z,20.80
2019-04-04T11:20:55.921Z,20.46
2019-04-04T11:23:27.353Z,20.50
2019-04-04T11:25:59.047Z,20.22
2019-04-04T11:28:33.172Z,18.90
2019-04-04T11:31:04.315Z,18.99
2019-04-04T11:33:36.094Z,19.67
2019-04-04T11:36:07.204Z,19.80
2019-04-04T11:38:39.563Z,18.97
2019-04-04T11:41:10.751Z,18.80
2019-04-04T11:43:44.110Z,18.88
2019-04-04T11:46:15.423Z,18.69
2019-04-04T11:48:48.872Z,18.93
2019-04-04T11:51:22.539Z,18.81
2019-04-04T11:53:54.036Z,18.63
2019-04-04T11:56:27.620Z,18.07
2019-04-04T11:59:00.947Z,18.25
2019-04-04T12:01:36.795Z,18.58
2019-04-04T12:04:08.135Z,17.39
2019-04-04T12:06:41.326Z,18.60
2019-04-04T12:09:12.701Z,17.76
2019-04-04T12:11:44.093Z,18.26
2019-04-04T12:14:16.669Z,17.25
2019-04-04T12:16:48.671Z,18.21
2019-04-04T12:19:19.979Z,18.79
2019-04-04T12:21:53.526Z,18.19
2019-04-04T12:24:24.674Z,17.91
2019-04-04T12:26:58.444Z,17.72
2019-04-04T12:29:29.336Z,18.68
2019-04-04T12:32:01.396Z,18.29
2019-04-04T12:34:34.205Z,19.12
2019-04-04T12:37:06.492Z,17.73
2019-04-04T12:39:39.461Z,18.10
2019-04-04T12:42:10.878Z,18.21
2019-04-04T12:44:43.863Z,19.62
2019-04-04T12:47:15.440Z,21.26
2019-04-04T12:49:48.857Z,20.56
2019-04-04T12:52:21.054Z,19.89
2019-04-04T12:54:52.380Z,19.40
2019-04-04T12:57:23.885Z,18.35
2019-04-04T12:59:56.464Z,18.85
2019-04-04T13:02:28.068Z,18.02
2019-04-04T13:04:59.992Z,18.45
2019-04-04T13:07:32.854Z,18.71
2019-04-04T13:10:11.894Z,19.78
2019-04-04T13:12:46.875Z,18.92
2019-04-04T13:15:20.812Z,18.34
2019-04-04T13:17:51.950Z,18.38
2019-04-04T13:20:23.276Z,17.22
2019-04-04T13:22:54.626Z,17.93
2019-04-04T13:25:25.909Z,17.98
2019-04-04T13:27:57.266Z,18.57
2019-04-04T13:30:30.997Z,19.09
2019-04-04T13:33:04.139Z,20.69
2019-04-04T13:35:37.932Z,21.10
2019-04-04T13:38:09.917Z,21.41
2019-04-04T13:40:45.798Z,21.44
2019-04-04T13:43:15.614Z,21.91
2019-04-04T13:45:48.695Z,22.03
2019-04-04T13:48:21.161Z,21.35
2019-04-04T13:50:52.918Z,21.33
2019-04-04T13:53:25.445Z,21.29
2019-04-04T13:55:59.140Z,20.12
2019-04-04T13:58:31.064Z,19.72
2019-04-04T14:01:02.277Z,20.36
2019-04-04T14:03:33.623Z,19.94
2019-04-04T14:06:05.858Z,19.25
2019-04-04T14:08:39.131Z,20.48
2019-04-04T14:11:10.671Z,19.80
2019-04-04T14:13:43.001Z,20.46
2019-04-04T14:16:14.581Z,21.07
2019-04-04T14:18:46.228Z,22.73
2019-04-04T14:21:17.366Z,23.81
2019-04-04T14:23:52.270Z,24.71
2019-04-04T14:26:25.277Z,24.97
2019-04-04T14:28:58.254Z,24.96
2019-04-04T14:31:31.134Z,24.81
2019-04-04T14:34:02.429Z,24.21
2019-04-04T14:36:34.569Z,24.64
2019-04-04T14:39:07.537Z,25.36
2019-04-04T14:41:39.375Z,25.96
2019-04-04T14:44:11.384Z,26.14
2019-04-04T14:46:42.915Z,26.38
2019-04-04T14:49:15.933Z,26.33
2019-04-04T14:51:47.863Z,26.76
2019-04-04T14:54:21.921Z,27.02
2019-04-04T14:56:54.301Z,26.93
2019-04-04T14:59:27.866Z,27.26
2019-04-04T15:02:05.667Z,27.40
2019-04-04T15:04:36.812Z,27.27
2019-04-04T15:07:08.077Z,27.56
2019-04-04T15:09:39.587Z,27.67
2019-04-04T15:12:11.163Z,27.58
2019-04-04T15:14:44.669Z,27.81
2019-04-04T15:17:15.921Z,27.86
2019-04-04T15:19:47.054Z,27.72
2019-04-04T15:22:18.631Z,27.79
2019-04-04T15:24:59.808Z,27.87
2019-04-04T15:27:35.413Z,28.04
2019-04-04T15:30:07.640Z,28.41
2019-04-04T15:32:39.630Z,28.07
2019-04-04T15:35:16.267Z,28.27
2019-04-04T15:37:47.350Z,28.48
2019-04-04T15:40:19.811Z,28.67
2019-04-04T15:42:51.098Z,28.91
2019-04-04T15:45:22.325Z,29.07
2019-04-04T15:47:58.012Z,29.24
2019-04-04T15:50:31.117Z,28.99
2019-04-04T15:53:02.578Z,29.15
2019-04-04T15:55:35.317Z,29.24
2019-04-04T15:58:06.507Z,29.31
2019-04-04T16:00:37.558Z,29.64
2019-04-04T16:03:08.673Z,30.07
2019-04-04T16:05:41.104Z,29.67
2019-04-04T16:08:12.931Z,29.77
2019-04-04T16:10:44.547Z,29.66
2019-04-04T16:13:15.878Z,29.84
2019-04-04T16:15:53.651Z,29.95
2019-04-04T16:18:24.728Z,29.96
2019-04-04T16:20:55.775Z,29.76
2019-04-04T16:23:26.832Z,30.05
2019-04-04T16:25:59.179Z,30.33
2019-04-04T16:28:31.094Z,30.49
2019-04-04T16:31:04.611Z,30.71
2019-04-04T16:33:36.214Z,30.76
2019-04-04T16:36:07.415Z,31.00
2019-04-04T16:38:38.813Z,30.90
2019-04-04T16:41:10.078Z,30.92
2019-04-04T16:43:42.302Z,31.05
2019-04-04T16:46:13.374Z,31.14
2019-04-04T16:48:46.542Z,31.28
2019-04-04T16:51:17.620Z,31.47
2019-04-04T16:53:49.159Z,31.71
2019-04-04T16:56:20.587Z,31.80
2019-04-04T16:58:51.942Z,32.23
2019-04-04T17:01:23.351Z,32.06
2019-04-04T17:04:01.914Z,32.13
2019-04-04T17:06:29.608Z,32.28
2019-04-04T17:09:01.832Z,32.36
2019-04-04T17:11:34.538Z,32.41
2019-04-04T17:14:11.081Z,32.50
2019-04-04T17:16:42.160Z,32.76
2019-04-04T17:19:13.575Z,32.82
2019-04-04T17:21:44.796Z,33.06
2019-04-04T17:24:16.468Z,33.52
2019-04-04T17:26:48.667Z,33.82
2019-04-04T17:29:19.764Z,34.06
2019-04-04T17:31:51.484Z,34.19
2019-04-04T17:34:22.670Z,34.67
2019-04-04T17:36:54.143Z,34.96
2019-04-04T17:39:25.566Z,35.05
2019-04-04T17:41:56.962Z,35.10
2019-04-04T17:44:28.534Z,34.76
2019-04-04T17:46:59.863Z,34.95
2019-04-04T17:49:32.737Z,35.09
2019-04-04T17:52:04.538Z,35.36
2019-04-04T17:54:36.392Z,35.53
2019-04-04T17:57:07.599Z,35.75
2019-04-04T17:59:39.077Z,36.04
2019-04-04T18:02:10.546Z,36.43
2019-04-04T18:04:48.121Z,36.65
2019-04-04T18:07:14.926Z,36.90
2019-04-04T18:09:46.455Z,37.08
2019-04-04T18:12:19.320Z,37.17
2019-04-04T18:14:52.153Z,37.15
2019-04-04T18:17:25.104Z,37.40
2019-04-04T18:19:56.701Z,37.57
2019-04-04T18:22:28.087Z,37.37
2019-04-04T18:24:59.640Z,37.04
2019-04-04T18:27:32.018Z,37.73
2019-04-04T18:30:05.031Z,39.64
2019-04-04T18:32:36.297Z,39.96
2019-04-04T18:35:11.712Z,40.37
2019-04-04T18:37:43.043Z,40.85
2019-04-04T18:40:15.976Z,40.51
2019-04-04T18:42:53.004Z,40.13
2019-04-04T18:45:22.120Z,40.04
2019-04-04T18:47:53.682Z,40.19
2019-04-04T18:50:26.852Z,40.69
2019-04-04T18:52:58.831Z,40.16
2019-04-04T18:55:30.210Z,40.41
2019-04-04T18:58:01.532Z,40.14
2019-04-04T19:00:32.973Z,40.46
2019-04-04T19:03:05.756Z,40.75
2019-04-04T19:05:36.913Z,41.08
2019-04-04T19:08:08.561Z,41.17
2019-04-04T19:10:40.429Z,41.42
2019-04-04T19:13:12.385Z,41.63
2019-04-04T19:15:43.736Z,41.88
2019-04-04T19:18:14.981Z,42.13
2019-04-04T19:20:46.424Z,42.33
2019-04-04T19:23:17.806Z,42.29
2019-04-04T19:25:49.325Z,42.22
2019-04-04T19:28:20.733Z,42.48
2019-04-04T19:30:52.617Z,43.30
2019-04-04T19:33:23.997Z,43.17
2019-04-04T19:35:56.242Z,43.33
2019-04-04T19:38:27.344Z,43.38
2019-04-04T19:40:58.796Z,43.13
2019-04-04T19:43:30.677Z,43.04
2019-04-04T19:46:02.221Z,42.21
2019-04-04T19:48:33.458Z,42.49
2019-04-04T19:51:05.745Z,46.01
2019-04-04T19:53:37.356Z,48.31
2019-04-04T19:56:10.867Z,47.50
2019-04-04T19:58:42.443Z,47.48
2019-04-04T20:01:13.716Z,47.60
2019-04-04T20:03:45.101Z,46.82
2019-04-04T20:06:16.335Z,46.47
2019-04-04T20:08:50.905Z,42.86
2019-04-04T20:11:20.337Z,44.01
2019-04-04T20:13:52.196Z,44.71
2019-04-04T20:16:23.505Z,46.16
2019-04-04T20:18:55.693Z,46.26
2019-04-04T20:21:26.985Z,46.94
2019-04-04T20:23:59.090Z,48.20
2019-04-04T20:26:30.340Z,48.46
2019-04-04T20:29:01.785Z,48.06
2019-04-04T20:31:33.840Z,46.96
2019-04-04T20:34:06.301Z,46.66
2019-04-04T20:36:39.678Z,46.33
2019-04-04T20:39:10.786Z,45.61
2019-04-04T20:41:42.082Z,45.85
2019-04-04T20:44:13.218Z,45.60
2019-04-04T20:46:46.129Z,45.09
2019-04-04T20:49:17.525Z,45.21
2019-04-04T20:51:49.552Z,45.15
2019-04-04T20:54:20.796Z,44.09
2019-04-04T20:56:51.947Z,45.61
2019-04-04T20:59:24.620Z,46.97
2019-04-04T21:01:55.748Z,47.22
2019-04-04T21:04:26.903Z,47.47
2019-04-04T21:06:57.996Z,47.55
2019-04-04T21:09:30.646Z,47.84
2019-04-04T21:12:02.738Z,47.31
2019-04-04T21:14:33.943Z,47.36
2019-04-04T21:17:05.219Z,48.12
2019-04-04T21:19:36.312Z,47.74
2019-04-04T21:22:07.536Z,47.55
2019-04-04T21:24:38.364Z,47.01
2019-04-04T21:27:09.510Z,47.02
2019-04-04T21:29:41.639Z,47.28
2019-04-04T21:32:12.756Z,47.48
2019-04-04T21:34:45.630Z,47.58
2019-04-04T21:37:16.712Z,47.73
2019-04-04T21:39:47.856Z,47.87
2019-04-04T21:42:18.971Z,48.31
2019-04-04T21:44:50.051Z,49.06
2019-04-04T21:47:21.151Z,50.04
2019-04-04T21:49:53.832Z,49.55
2019-04-04T21:52:25.900Z,49.40
2019-04-04T21:54:57.088Z,48.35
2019-04-04T21:57:29.015Z,48.16
2019-04-04T22:00:00.221Z,48.52
2019-04-04T22:02:32.454Z,49.01
2019-04-04T22:05:05.102Z,49.21
2019-04-04T22:07:36.248Z,49.90
2019-04-04T22:10:08.279Z,49.73
2019-04-04T22:12:39.477Z,50.00
2019-04-04T22:15:10.683Z,50.27
2019-04-04T22:17:41.608Z,50.31
2019-04-04T22:20:13.547Z,50.19
2019-04-04T22:22:44.814Z,50.33
2019-04-04T22:25:16.811Z,50.16
2019-04-04T22:27:47.879Z,50.51
2019-04-04T22:30:19.110Z,50.46
2019-04-04T22:32:50.222Z,50.54
2019-04-04T22:35:21.329Z,50.98
2019-04-04T22:37:53.439Z,51.01
2019-04-04T22:40:24.591Z,51.27
2019-04-04T22:42:55.726Z,52.26
2019-04-04T22:45:27.668Z,52.46
2019-04-04T22:47:58.882Z,52.65
2019-04-04T22:50:30.025Z,53.12
2019-04-04T22:53:02.090Z,53.61
2019-04-04T22:55:33.257Z,53.14
2019-04-04T22:58:04.681Z,52.60
2019-04-04T23:00:36.795Z,52.92
2019-04-04T23:03:08.126Z,53.22
2019-04-04T23:05:39.620Z,54.07
2019-04-04T23:08:10.825Z,54.65
2019-04-04T23:10:41.957Z,55.28
2019-04-04T23:13:13.219Z,52.96
2019-04-04T23:15:44.392Z,53.55
2019-04-04T23:18:15.622Z,53.16
2019-04-04T23:20:46.832Z,53.40
2019-04-04T23:23:19.905Z,54.26
2019-04-04T23:25:50.897Z,54.41
2019-04-04T23:28:21.975Z,54.25
2019-04-04T23:30:52.961Z,53.39
2019-04-04T23:33:24.168Z,53.22
2019-04-04T23:35:55.231Z,53.37
2019-04-04T23:38:26.364Z,53.82
2019-04-04T23:40:57.469Z,54.44
2019-04-04T23:43:28.902Z,54.78
2019-04-04T23:46:00.375Z,54.99
2019-04-04T23:48:31.515Z,55.41
2019-04-04T23:51:02.784Z,53.63
2019-04-04T23:53:34.992Z,53.52
2019-04-04T23:56:06.797Z,53.34
2019-04-04T23:58:38.222Z,53.66
